Time;durP1;ratioP1;P1;durP2;ratioP2;P2;SDS_P1;SDS_P2;PMS_P1;PMS_P2;Temp;Humidity;BMP_temperature;BMP_pressure;BME280_temperature;BME280_humidity;BME280_pressure;Samples;Min_cycle;Max_cycle;Signal;HPM_P1;HPM_P2
2023/01/16 00:01:01;;;;;;;1.50;1.00;;;2.20;99.90;;;;;;4991242;28;20464;-75
2023/01/16 00:03:28;;;;;;;2.60;1.17;;;2.10;99.90;;;;;;4990001;28;20994;-77
2023/01/16 00:05:55;;;;;;;2.10;1.00;;;2.10;99.90;;;;;;4991070;28;20458;-79
2023/01/16 00:08:22;;;;;;;1.20;1.10;;;1.90;99.90;;;;;;4990623;28;20471;-75
2023/01/16 00:10:49;;;;;;;1.17;0.83;;;1.80;99.90;;;;;;4990649;28;20541;-76
2023/01/16 00:13:16;;;;;;;1.60;0.87;;;1.70;99.90;;;;;;4990845;28;20522;-76
2023/01/16 00:15:47;;;;;;;1.60;0.97;;;1.80;99.90;;;;;;4990520;28;20464;-75
2023/01/16 00:18:14;;;;;;;2.03;0.90;;;1.80;99.90;;;;;;4990928;28;20453;-76
2023/01/16 00:20:41;;;;;;;0.93;0.90;;;1.70;99.90;;;;;;4990101;28;20432;-76
2023/01/16 00:23:08;;;;;;;1.13;0.87;;;1.70;99.90;;;;;;4990176;28;20451;-76
2023/01/16 00:25:39;;;;;;;2.30;1.07;;;1.60;99.90;;;;;;4990450;28;20471;-76
2023/01/16 00:28:06;;;;;;;1.17;1.07;;;1.70;99.90;;;;;;4990480;28;20554;-75
2023/01/16 00:30:33;;;;;;;0.80;0.80;;;1.70;99.90;;;;;;4990736;28;20551;-75
2023/01/16 00:33:01;;;;;;;1.40;1.03;;;1.80;99.90;;;;;;4990536;28;20496;-77
2023/01/16 00:35:28;;;;;;;1.30;1.20;;;1.90;99.90;;;;;;4990519;28;20485;-76
2023/01/16 00:37:55;;;;;;;3.83;1.47;;;1.90;99.90;;;;;;4990330;28;20487;-76
2023/01/16 00:40:22;;;;;;;4.00;1.00;;;2.20;99.90;;;;;;4989205;28;20491;-77
2023/01/16 00:42:50;;;;;;;1.30;0.90;;;1.90;99.90;;;;;;4990094;28;20457;-76
2023/01/16 00:45:17;;;;;;;0.80;0.70;;;1.90;99.90;;;;;;4990163;28;21019;-75
2023/01/16 00:47:43;;;;;;;1.83;0.97;;;2.40;99.90;;;;;;4990393;28;20457;-77
2023/01/16 00:50:12;;;;;;;3.53;1.00;;;1.80;99.90;;;;;;4990533;28;20463;-76
2023/01/16 00:52:39;;;;;;;2.20;1.13;;;1.70;99.90;;;;;;4989894;28;20480;-75
2023/01/16 00:55:07;;;;;;;1.13;0.87;;;1.70;99.90;;;;;;4988930;28;20836;-76
2023/01/16 00:57:34;;;;;;;2.60;2.30;;;1.80;99.90;;;;;;4989582;28;20914;-77
2023/01/16 01:00:01;;;;;;;1.43;1.13;;;1.80;99.90;;;;;;4989922;28;20456;-76
2023/01/16 01:02:27;;;;;;;1.00;0.90;;;1.70;99.90;;;;;;4989907;28;20468;-77
2023/01/16 01:04:54;;;;;;;1.70;0.90;;;1.70;99.90;;;;;;4989441;28;20551;-76
2023/01/16 01:07:22;;;;;;;1.77;0.83;;;1.80;99.90;;;;;;4989844;28;20826;-76
2023/01/16 01:09:49;;;;;;;6.40;1.10;;;1.80;99.90;;;;;;4989811;28;20979;-76
2023/01/16 01:12:16;;;;;;;1.00;0.90;;;1.80;99.90;;;;;;4988806;28;20475;-76
2023/01/16 01:14:43;;;;;;;2.03;1.00;;;1.70;99.90;;;;;;4989666;28;20470;-77
2023/01/16 01:17:11;;;;;;;2.57;1.00;;;1.80;99.90;;;;;;4989519;28;20534;-76
2023/01/16 01:19:38;;;;;;;1.33;1.23;;;1.80;99.90;;;;;;4989404;28;20447;-76
2023/01/16 01:22:04;;;;;;;1.23;0.83;;;1.80;99.90;;;;;;4989973;28;20464;-76
2023/01/16 01:24:33;;;;;;;1.53;0.93;;;1.90;99.90;;;;;;4989667;28;20480;-77
2023/01/16 01:26:59;;;;;;;2.60;1.20;;;1.70;99.90;;;;;;4989193;28;20810;-76
2023/01/16 01:29:26;;;;;;;1.63;1.20;;;1.90;99.90;;;;;;4988193;28;20661;-77
2023/01/16 01:31:53;;;;;;;1.87;1.10;;;2.00;99.90;;;;;;4989125;28;20813;-75
2023/01/16 01:34:20;;;;;;;1.30;1.10;;;2.10;99.90;;;;;;4989411;28;20495;-76
2023/01/16 01:36:47;;;;;;;1.20;1.00;;;1.90;99.90;;;;;;4989285;28;20439;-76
2023/01/16 01:39:13;;;;;;;3.47;1.20;;;1.80;99.90;;;;;;4989178;28;20453;-75
2023/01/16 01:41:42;;;;;;;1.17;1.00;;;1.70;99.90;;;;;;4989023;28;20445;-76
2023/01/16 01:44:42;;;;;;;1.50;1.10;;;1.70;99.90;;;;;;4989156;28;20488;-76
2023/01/16 01:47:09;;;;;;;1.20;1.10;;;1.80;99.90;;;;;;4969954;28;20450;-75
2023/01/16 01:49:37;;;;;;;1.10;1.00;;;1.80;99.90;;;;;;4969758;28;20474;-75
2023/01/16 01:52:06;;;;;;;1.23;1.13;;;1.70;99.90;;;;;;4970192;28;20445;-75
2023/01/16 01:54:36;;;;;;;1.10;0.70;;;1.70;99.90;;;;;;4969911;28;20484;-76
2023/01/16 01:57:10;;;;;;;1.20;0.93;;;1.60;99.90;;;;;;4969691;28;20473;-76
2023/01/16 01:59:44;;;;;;;2.00;1.00;;;1.60;99.90;;;;;;4969812;28;20975;-76
2023/01/16 02:02:18;;;;;;;1.10;0.83;;;1.70;99.90;;;;;;4975753;28;20472;-76
2023/01/16 02:04:49;;;;;;;1.07;0.97;;;2.10;99.90;;;;;;4989392;28;20476;-76
2023/01/16 02:07:19;;;;;;;1.27;1.10;;;2.00;99.90;;;;;;4990614;28;20448;-75
2023/01/16 02:09:46;;;;;;;1.00;0.90;;;1.90;99.90;;;;;;4990017;28;20449;-76
2023/01/16 02:12:16;;;;;;;3.97;1.00;;;1.80;99.90;;;;;;4989377;28;20463;-76
2023/01/16 02:14:46;;;;;;;1.17;0.90;;;2.00;99.90;;;;;;4989388;28;20504;-77
2023/01/16 02:20:14;;;;;;;0.90;0.77;;;1.90;99.90;;;;;;5077856;23;20506;-90
2023/01/16 02:23:19;;;;;;;1.20;0.80;;;2.00;99.90;;;;;;5009907;28;20506;-80
2023/01/16 02:26:12;;;;;;;0.80;0.80;;;1.90;99.90;;;;;;5009055;28;20467;-84
2023/01/16 02:29:10;;;;;;;1.27;0.87;;;1.80;99.90;;;;;;5010193;28;20458;-80
2023/01/16 02:31:48;;;;;;;1.23;1.13;;;2.10;99.90;;;;;;5015283;28;20444;-81
2023/01/16 02:34:33;;;;;;;2.53;1.20;;;1.90;99.90;;;;;;5014765;28;20490;-84
2023/01/16 02:37:11;;;;;;;1.33;1.10;;;1.80;99.90;;;;;;5013336;28;20471;-81
2023/01/16 02:39:48;;;;;;;1.10;0.90;;;2.00;99.90;;;;;;5014215;28;20440;-85
2023/01/16 02:42:24;;;;;;;1.33;0.90;;;1.80;99.90;;;;;;5009042;28;20435;-80
2023/01/16 02:44:59;;;;;;;1.93;0.90;;;1.80;99.90;;;;;;5008726;28;20448;-82
2023/01/16 02:47:36;;;;;;;0.90;0.80;;;1.80;99.90;;;;;;5011785;28;20729;-83
2023/01/16 02:50:11;;;;;;;1.23;0.80;;;1.90;99.90;;;;;;4989217;28;20457;-82
2023/01/16 02:52:44;;;;;;;0.80;0.80;;;1.80;99.90;;;;;;4988776;28;20495;-82
2023/01/16 02:55:17;;;;;;;1.00;0.70;;;1.80;99.90;;;;;;4991750;28;20438;-81
2023/01/16 02:57:48;;;;;;;1.10;1.00;;;1.90;99.90;;;;;;4994671;28;20454;-80
2023/01/16 03:00:19;;;;;;;1.20;0.80;;;1.80;99.90;;;;;;4996951;28;20469;-80
2023/01/16 03:02:47;;;;;;;1.07;0.97;;;1.80;99.90;;;;;;4993502;28;20441;-83
2023/01/16 03:05:14;;;;;;;1.13;0.80;;;1.90;99.90;;;;;;4992537;28;20504;-80
2023/01/16 03:08:15;;;;;;;1.20;0.90;;;2.00;99.90;;;;;;5003500;28;20442;-82
2023/01/16 03:11:10;;;;;;;1.07;0.90;;;2.00;99.90;;;;;;4991525;28;20475;-83
2023/01/16 03:13:50;;;;;;;2.07;1.80;;;1.90;99.90;;;;;;4988507;28;20492;-79
2023/01/16 03:16:29;;;;;;;3.77;0.80;;;1.70;99.90;;;;;;4988509;28;20441;-81
2023/01/16 03:19:06;;;;;;;1.57;1.30;;;1.60;99.90;;;;;;4987307;28;20492;-82
2023/01/16 03:21:42;;;;;;;1.70;0.97;;;1.50;99.90;;;;;;4991887;28;20506;-81
2023/01/16 03:24:20;;;;;;;1.10;0.90;;;1.50;99.90;;;;;;4991986;28;20970;-80
2023/01/16 03:26:50;;;;;;;1.23;0.90;;;1.50;99.90;;;;;;4992472;28;20460;-81
2023/01/16 03:29:25;;;;;;;1.83;1.00;;;1.50;99.90;;;;;;4992113;28;20963;-80
2023/01/16 03:31:57;;;;;;;1.37;1.00;;;1.70;99.90;;;;;;4991767;28;20449;-82
2023/01/16 03:34:34;;;;;;;2.90;1.00;;;1.40;99.90;;;;;;4990995;28;20585;-81
2023/01/16 03:37:07;;;;;;;1.77;1.67;;;1.30;99.90;;;;;;4992566;28;20975;-81
2023/01/16 03:39:39;;;;;;;1.70;1.17;;;1.30;99.90;;;;;;4992305;28;20723;-81
2023/01/16 03:42:11;;;;;;;1.00;0.83;;;1.20;99.90;;;;;;4991567;28;20476;-81
2023/01/16 03:44:41;;;;;;;1.17;1.00;;;1.30;99.90;;;;;;4991425;28;20458;-81
2023/01/16 03:47:15;;;;;;;1.90;1.20;;;1.20;99.90;;;;;;4991509;28;20936;-80
2023/01/16 03:49:48;;;;;;;2.97;1.33;;;1.30;99.90;;;;;;4991044;28;20475;-81
2023/01/16 03:52:19;;;;;;;1.40;1.30;;;1.40;99.90;;;;;;4990682;28;20460;-81
2023/01/16 03:54:51;;;;;;;1.60;1.10;;;1.20;99.90;;;;;;4991568;28;20491;-80
2023/01/16 03:57:23;;;;;;;1.00;0.90;;;1.30;99.90;;;;;;4991216;28;20448;-85
2023/01/16 03:59:51;;;;;;;1.03;0.93;;;1.10;99.90;;;;;;4991479;28;20456;-79
2023/01/16 04:02:23;;;;;;;2.40;1.10;;;1.10;99.90;;;;;;4991385;28;20492;-81
2023/01/16 04:04:57;;;;;;;1.23;1.00;;;1.70;99.90;;;;;;4991211;28;20447;-79
2023/01/16 04:07:32;;;;;;;1.97;1.60;;;1.10;99.90;;;;;;4989989;28;20476;-80
2023/01/16 04:10:01;;;;;;;1.57;1.47;;;1.00;99.90;;;;;;4991103;28;20816;-85
2023/01/16 04:12:34;;;;;;;1.50;1.40;;;1.10;99.90;;;;;;4990937;28;20432;-81
2023/01/16 04:15:04;;;;;;;1.17;1.07;;;1.10;99.90;;;;;;4990943;28;20864;-81
2023/01/16 04:17:31;;;;;;;1.63;1.10;;;1.10;99.90;;;;;;4990559;28;20451;-81
2023/01/16 04:19:59;;;;;;;4.20;1.20;;;1.10;99.90;;;;;;4990460;28;20501;-82
2023/01/16 04:22:27;;;;;;;1.20;1.10;;;1.00;99.90;;;;;;4989276;28;20473;-80
2023/01/16 04:24:56;;;;;;;2.70;1.17;;;1.00;99.90;;;;;;4990904;28;20995;-80
2023/01/16 04:27:24;;;;;;;1.17;1.07;;;0.90;99.90;;;;;;4991062;28;20459;-82
2023/01/16 04:29:51;;;;;;;2.27;1.20;;;0.90;99.90;;;;;;4990724;28;20453;-81
2023/01/16 04:32:17;;;;;;;1.00;0.90;;;0.80;99.90;;;;;;4989333;28;20844;-80
2023/01/16 04:34:44;;;;;;;1.60;1.20;;;0.60;99.90;;;;;;4990432;28;20489;-78
2023/01/16 04:37:14;;;;;;;4.00;1.33;;;0.50;99.90;;;;;;4990410;28;20452;-77
2023/01/16 04:39:40;;;;;;;2.17;1.40;;;0.40;99.90;;;;;;4989997;28;20967;-77
2023/01/16 04:42:08;;;;;;;3.63;2.10;;;0.40;99.90;;;;;;4988972;28;20527;-76
2023/01/16 04:44:34;;;;;;;2.27;1.10;;;0.30;99.90;;;;;;4989695;28;20484;-77
2023/01/16 04:47:01;;;;;;;1.20;1.00;;;0.30;99.90;;;;;;4989965;28;20459;-77
2023/01/16 04:49:28;;;;;;;1.80;1.00;;;0.20;99.90;;;;;;4989742;28;20472;-77
2023/01/16 04:51:55;;;;;;;1.03;0.93;;;0.30;99.90;;;;;;4989821;28;20462;-77
2023/01/16 04:54:23;;;;;;;1.57;1.10;;;0.00;99.90;;;;;;4989683;28;20572;-76
2023/01/16 04:56:50;;;;;;;1.63;1.00;;;0.40;99.90;;;;;;4989400;28;20462;-76
2023/01/16 04:59:17;;;;;;;1.93;1.33;;;0.30;99.90;;;;;;4988353;28;20854;-77
2023/01/16 05:01:44;;;;;;;1.23;1.13;;;0.30;99.90;;;;;;4983251;28;20829;-77
2023/01/16 05:04:13;;;;;;;2.30;2.20;;;0.30;99.90;;;;;;4986603;28;20470;-76
2023/01/16 05:06:40;;;;;;;1.93;1.83;;;0.40;99.90;;;;;;4989911;28;20459;-76
2023/01/16 05:09:08;;;;;;;1.13;1.00;;;0.40;99.90;;;;;;4989305;28;20573;-75
2023/01/16 05:11:36;;;;;;;1.53;1.00;;;0.30;99.90;;;;;;4987302;28;21163;-75
2023/01/16 05:14:05;;;;;;;1.57;1.00;;;0.20;99.90;;;;;;4991937;28;20497;-75
2023/01/16 05:16:32;;;;;;;1.60;0.93;;;0.00;99.90;;;;;;4991037;28;20523;-75
2023/01/16 05:18:59;;;;;;;1.10;0.90;;;0.00;99.90;;;;;;4995058;28;20494;-76
2023/01/16 05:21:25;;;;;;;2.50;0.90;;;0.00;99.90;;;;;;4994431;28;20466;-76
2023/01/16 05:23:52;;;;;;;2.23;1.07;;;-0.10;99.90;;;;;;4992207;28;20460;-80
2023/01/16 05:26:19;;;;;;;1.83;1.27;;;-0.20;99.90;;;;;;4991520;28;21008;-80
2023/01/16 05:28:47;;;;;;;1.10;1.00;;;-0.70;99.90;;;;;;4989313;28;20450;-76
2023/01/16 05:31:14;;;;;;;1.03;0.93;;;-0.30;99.90;;;;;;4988612;28;20648;-77
2023/01/16 05:33:41;;;;;;;1.07;0.97;;;-0.20;99.90;;;;;;4990880;28;20958;-80
2023/01/16 05:36:09;;;;;;;1.13;1.03;;;-0.20;99.90;;;;;;4989585;28;20542;-82
2023/01/16 05:38:36;;;;;;;7.50;1.10;;;-0.20;99.90;;;;;;4989684;28;20467;-78
2023/01/16 05:41:03;;;;;;;1.33;1.00;;;-0.20;99.90;;;;;;4989816;28;20472;-81
2023/01/16 05:43:29;;;;;;;1.30;0.90;;;-0.20;99.90;;;;;;4989502;28;20465;-80
2023/01/16 05:45:58;;;;;;;1.20;1.10;;;-0.30;99.90;;;;;;4988889;28;20781;-76
2023/01/16 05:48:24;;;;;;;2.00;1.50;;;-0.30;99.90;;;;;;4989640;28;20486;-75
2023/01/16 05:50:51;;;;;;;1.93;1.13;;;-0.30;99.90;;;;;;4984556;28;20460;-75
2023/01/16 05:53:18;;;;;;;0.90;0.90;;;-0.30;99.90;;;;;;4988579;28;20441;-74
2023/01/16 05:55:46;;;;;;;1.20;1.10;;;-0.20;99.90;;;;;;4987403;28;20495;-76
2023/01/16 05:58:15;;;;;;;1.43;1.17;;;-0.20;99.90;;;;;;4987408;28;20684;-75
2023/01/16 06:00:43;;;;;;;3.00;0.97;;;-0.10;99.90;;;;;;4987586;28;20594;-75
2023/01/16 06:03:11;;;;;;;1.20;1.10;;;0.00;99.90;;;;;;4989237;28;20861;-84
2023/01/16 06:05:38;;;;;;;1.87;1.23;;;0.10;99.90;;;;;;4994966;28;20468;-83
2023/01/16 06:08:05;;;;;;;2.10;1.50;;;0.10;99.90;;;;;;4989574;28;20884;-76
2023/01/16 06:10:32;;;;;;;1.97;1.40;;;0.10;99.90;;;;;;4987714;28;20498;-78
2023/01/16 06:13:01;;;;;;;3.23;1.10;;;0.10;99.90;;;;;;4987538;28;20466;-76
2023/01/16 06:15:28;;;;;;;1.20;1.10;;;0.10;99.90;;;;;;4987345;28;20487;-76
2023/01/16 06:17:56;;;;;;;3.87;1.20;;;0.20;99.90;;;;;;4994248;28;20441;-90
2023/01/16 06:20:32;;;;;;;1.47;1.03;;;0.20;99.90;;;;;;5001893;28;20504;-91
2023/01/16 06:22:59;;;;;;;4.97;1.53;;;0.20;99.90;;;;;;4989879;28;20456;-77
2023/01/16 06:25:26;;;;;;;6.70;1.70;;;0.10;99.90;;;;;;4988069;28;20448;-75
2023/01/16 06:27:53;;;;;;;4.23;1.40;;;0.10;99.90;;;;;;4993289;28;20688;-91
2023/01/16 06:58:52;;;;;;;1.50;1.30;;;0.00;99.90;;;;;;5567787;23;20462;-88
2023/01/16 07:06:30;;;;;;;3.83;1.50;;;0.30;99.90;;;;;;5028269;23;20494;-77
2023/01/16 07:08:57;;;;;;;4.30;1.50;;;0.20;99.90;;;;;;5010928;28;20453;-75
2023/01/16 07:11:24;;;;;;;3.43;1.47;;;0.10;99.90;;;;;;5010794;28;20473;-76
2023/01/16 07:22:34;;;;;;;2.87;1.50;;;0.10;99.90;;;;;;5009328;28;20941;-76
2023/01/16 07:24:56;;;;;;;1.80;1.20;;;0.40;99.90;;;;;;5011009;28;20439;-76
2023/01/16 07:27:24;;;;;;;6.77;2.67;;;0.40;99.90;;;;;;5010721;28;20444;-76
2023/01/16 07:29:53;;;;;;;2.00;1.27;;;0.40;99.90;;;;;;5009426;28;20813;-77
2023/01/16 07:32:20;;;;;;;1.17;1.07;;;-0.10;99.90;;;;;;5010679;28;21007;-76
2023/01/16 07:34:47;;;;;;;1.30;1.20;;;0.30;99.90;;;;;;5010323;28;21103;-76
2023/01/16 07:37:14;;;;;;;2.30;1.30;;;0.30;99.90;;;;;;5010523;28;20459;-75
2023/01/16 07:39:41;;;;;;;2.07;1.20;;;0.20;99.90;;;;;;5010546;28;20478;-76
2023/01/16 07:42:08;;;;;;;1.50;1.00;;;0.30;99.90;;;;;;5010367;28;20451;-78
2023/01/16 07:44:36;;;;;;;1.63;1.20;;;0.70;99.90;;;;;;5008878;28;20594;-77
2023/01/16 07:47:04;;;;;;;1.20;1.10;;;0.50;99.90;;;;;;5010060;28;20462;-76
2023/01/16 07:49:31;;;;;;;2.23;1.20;;;0.50;99.90;;;;;;4993809;28;20483;-76
2023/01/16 07:51:57;;;;;;;1.40;1.20;;;0.60;99.90;;;;;;4990426;28;20623;-76
2023/01/16 07:54:24;;;;;;;1.37;1.27;;;0.60;99.90;;;;;;4990730;28;20820;-76
2023/01/16 07:56:51;;;;;;;1.40;1.30;;;0.70;99.90;;;;;;4990618;28;20943;-76
2023/01/16 07:59:18;;;;;;;2.03;1.23;;;0.70;99.90;;;;;;4990383;28;20664;-77
2023/01/16 08:01:46;;;;;;;1.63;1.30;;;0.70;99.90;;;;;;4989320;28;20460;-75
2023/01/16 08:04:14;;;;;;;2.03;1.67;;;0.90;99.90;;;;;;4990155;28;20918;-75
2023/01/16 08:06:44;;;;;;;1.63;1.20;;;0.80;99.90;;;;;;4990461;28;20457;-76
2023/01/16 08:09:11;;;;;;;7.73;1.43;;;0.90;99.90;;;;;;4990279;28;20448;-76
2023/01/16 08:11:38;;;;;;;1.60;1.10;;;0.90;99.90;;;;;;4990151;28;20546;-76
2023/01/16 08:14:06;;;;;;;2.57;1.13;;;0.90;99.90;;;;;;4990320;28;20465;-75
2023/01/16 08:16:33;;;;;;;1.40;1.30;;;1.10;99.90;;;;;;4990216;28;21008;-76
2023/01/16 08:19:00;;;;;;;1.20;1.10;;;1.10;99.90;;;;;;4989239;28;20460;-76
2023/01/16 08:21:28;;;;;;;2.00;1.13;;;1.00;99.90;;;;;;4990194;28;20457;-78
2023/01/16 08:23:55;;;;;;;3.23;1.50;;;1.10;99.90;;;;;;5251698;23;20532;-78
2023/01/16 08:28:59;;;;;;;2.70;1.33;;;1.10;99.90;;;;;;5866159;23;20902;-91
2023/01/16 10:00:16;;;;;;;2.60;2.23;;;3.50;99.90;;;;;;6109996;23;20448;31
2023/01/16 10:39:01;;;;;;;3.40;1.60;;;4.20;99.90;;;;;;6054776;23;20395;-80
2023/01/16 12:34:49;;;;;;;1.83;1.70;;;8.10;99.90;;;;;;5974524;23;20437;-83
2023/01/16 12:37:39;;;;;;;1.50;1.20;;;7.90;99.90;;;;;;4990378;28;20454;-94
2023/01/16 12:40:25;;;;;;;1.57;1.47;;;7.80;99.90;;;;;;4980974;28;20471;-94
2023/01/16 12:43:19;;;;;;;1.97;1.30;;;8.80;99.90;;;;;;4989366;28;20450;-94
2023/01/16 12:45:50;;;;;;;2.50;1.30;;;8.30;99.90;;;;;;4987633;28;20455;-91
2023/01/16 12:48:42;;;;;;;1.87;1.50;;;7.80;99.90;;;;;;4994835;28;20482;-92
2023/01/16 12:51:33;;;;;;;1.70;1.60;;;7.40;99.90;;;;;;5604186;23;20485;-94
2023/01/16 12:54:15;;;;;;;1.30;1.20;;;7.30;99.90;;;;;;5000771;28;20532;-82
2023/01/16 12:56:54;;;;;;;1.63;1.43;;;6.80;99.90;;;;;;5008643;28;20497;-94
2023/01/16 12:59:25;;;;;;;1.43;1.33;;;6.70;99.90;;;;;;5013876;28;20908;-93
2023/01/16 13:01:56;;;;;;;2.10;1.50;;;6.70;99.90;;;;;;5005534;28;20452;-93
2023/01/16 13:04:27;;;;;;;1.77;1.33;;;6.60;99.90;;;;;;4997118;28;20468;-92
2023/01/16 13:06:58;;;;;;;2.53;1.57;;;6.30;99.90;;;;;;5006897;28;20475;-94
2023/01/16 13:09:32;;;;;;;1.40;1.30;;;6.30;99.90;;;;;;5021248;28;20428;-92
2023/01/16 13:14:57;;;;;;;2.00;1.57;;;5.90;99.90;;;;;;4998751;28;20440;-91
2023/01/16 13:17:27;;;;;;;3.43;1.73;;;5.60;99.90;;;;;;5007424;28;20473;-93
2023/01/16 13:19:54;;;;;;;2.40;2.20;;;5.60;99.90;;;;;;5005059;28;20507;-91
2023/01/16 13:22:26;;;;;;;2.97;1.80;;;5.50;99.90;;;;;;5015477;28;20441;-94
2023/01/16 13:25:00;;;;;;;2.33;1.50;;;5.50;99.90;;;;;;5009422;28;20463;-93
2023/01/16 13:27:43;;;;;;;3.70;1.23;;;5.60;99.90;;;;;;5003407;28;20445;-91
2023/01/16 13:30:14;;;;;;;9.03;2.23;;;5.60;99.90;;;;;;5000417;28;20456;-94
2023/01/16 13:32:45;;;;;;;2.50;1.70;;;5.90;99.90;;;;;;5013750;28;20451;-94
2023/01/16 13:35:19;;;;;;;2.20;2.00;;;6.00;99.90;;;;;;5016115;28;20487;-92
2023/01/16 13:38:14;;;;;;;2.00;1.50;;;6.10;99.90;;;;;;5016548;28;20464;-92
2023/01/16 13:40:54;;;;;;;2.90;1.50;;;6.10;99.90;;;;;;5007555;28;20516;-93
2023/01/16 13:46:14;;;;;;;3.57;1.67;;;5.70;99.90;;;;;;5002728;28;20523;-91
2023/01/16 13:48:44;;;;;;;2.00;1.43;;;5.70;99.90;;;;;;5005676;28;20530;-93
2023/01/16 13:51:15;;;;;;;2.83;1.50;;;5.70;99.90;;;;;;4993998;28;20441;-93
2023/01/16 13:53:47;;;;;;;1.50;1.30;;;5.70;99.90;;;;;;4987055;28;20474;-91
2023/01/16 13:56:17;;;;;;;1.20;1.00;;;5.70;99.90;;;;;;4954627;28;20789;-94
2023/01/16 13:58:46;;;;;;;2.33;1.30;;;5.60;99.90;;;;;;4983442;28;20998;-92
2023/01/16 14:01:29;;;;;;;2.20;1.53;;;5.70;99.90;;;;;;4981170;28;20477;-94
2023/01/16 14:04:33;;;;;;;1.47;1.37;;;5.70;99.90;;;;;;4981422;28;20466;-94
2023/01/16 14:10:17;;;;;;;1.90;1.50;;;5.50;99.90;;;;;;4980313;28;20446;-91
2023/01/16 14:13:00;;;;;;;2.40;1.47;;;5.50;99.90;;;;;;4949113;28;20497;-93
2023/01/16 14:18:44;;;;;;;2.97;1.30;;;5.40;99.90;;;;;;4979247;28;20959;-92
2023/01/16 14:21:19;;;;;;;2.27;1.50;;;5.40;99.90;;;;;;4985968;28;20465;-90
2023/01/16 14:24:00;;;;;;;1.00;0.90;;;5.50;99.90;;;;;;5001432;28;20497;-91
2023/01/16 14:31:46;;;;;;;1.77;1.17;;;5.40;99.90;;;;;;5030583;23;20491;-93
2023/01/16 14:34:17;;;;;;;1.50;1.00;;;5.40;99.90;;;;;;5009625;28;20448;-92
2023/01/16 14:36:46;;;;;;;3.20;1.53;;;5.50;99.90;;;;;;5012808;28;20531;-93
2023/01/16 14:39:32;;;;;;;2.90;1.20;;;5.40;99.90;;;;;;5028856;28;20461;-93
2023/01/16 14:56:51;;;;;;;2.40;1.30;;;5.10;99.90;;;;;;5046647;23;20506;-86
2023/01/16 14:59:26;;;;;;;1.00;0.90;;;5.00;99.90;;;;;;5201600;23;1297984;-91
2023/01/16 15:02:30;;;;;;;2.50;1.30;;;5.00;99.90;;;;;;3476420;23;20534;-94
2023/01/16 15:05:06;;;;;;;1.80;1.10;;;5.00;99.90;;;;;;5632848;23;20493;-94
2023/01/16 15:07:40;;;;;;;1.00;0.90;;;5.00;99.90;;;;;;5026606;28;20448;-96
2023/01/16 15:10:12;;;;;;;1.77;1.27;;;4.90;99.90;;;;;;5031291;28;20459;-94
2023/01/16 15:12:42;;;;;;;1.20;1.00;;;5.00;99.90;;;;;;5019846;28;20444;-91
2023/01/16 15:15:23;;;;;;;1.47;1.30;;;4.90;99.90;;;;;;5023904;28;20441;-94
2023/01/16 15:23:30;;;;;;;8.70;3.30;;;4.80;99.90;;;;;;5011761;28;20554;-91
2023/01/16 15:26:31;;;;;;;2.50;1.50;;;5.10;99.90;;;;;;5011996;28;20463;-92
2023/01/16 15:29:11;;;;;;;2.83;1.33;;;5.10;99.90;;;;;;5013005;28;20994;-86
2023/01/16 15:31:40;;;;;;;2.33;1.30;;;5.10;99.90;;;;;;5003229;28;20547;-92
2023/01/16 15:34:20;;;;;;;2.93;1.80;;;4.90;99.90;;;;;;5020190;28;20478;-93
2023/01/16 15:36:50;;;;;;;1.90;1.40;;;4.80;99.90;;;;;;5014631;28;20489;-91
2023/01/16 15:39:22;;;;;;;3.73;1.47;;;4.70;99.90;;;;;;5015776;28;20547;-87
2023/01/16 15:48:10;;;;;;;1.33;1.23;;;4.80;99.90;;;;;;5008101;28;20467;-84
2023/01/16 15:50:48;;;;;;;1.47;1.33;;;4.80;99.90;;;;;;4989349;28;20855;-84
2023/01/16 15:53:16;;;;;;;3.73;1.50;;;4.70;99.90;;;;;;4990328;28;20960;-88
2023/01/16 15:55:45;;;;;;;2.70;1.57;;;4.60;99.90;;;;;;4990588;28;20498;-82
2023/01/16 15:58:16;;;;;;;2.20;1.50;;;4.40;99.90;;;;;;4991236;28;20454;-88
2023/01/16 16:00:53;;;;;;;1.40;1.30;;;4.30;99.90;;;;;;4995822;28;21105;-88
2023/01/16 16:03:22;;;;;;;2.10;1.50;;;4.30;99.90;;;;;;4997750;28;20526;-90
2023/01/16 16:05:51;;;;;;;3.50;1.70;;;4.50;99.90;;;;;;4991192;28;20520;-84
2023/01/16 16:08:23;;;;;;;3.07;1.57;;;4.30;99.90;;;;;;4993612;28;20452;-92
2023/01/16 16:13:37;;;;;;;1.73;1.50;;;4.20;99.90;;;;;;4997675;28;20475;-91
2023/01/16 16:19:04;;;;;;;3.60;1.90;;;4.10;99.90;;;;;;4996876;28;21030;-93
2023/01/16 16:21:35;;;;;;;4.53;1.80;;;4.10;99.90;;;;;;4990767;28;21590;-93
2023/01/16 16:24:05;;;;;;;1.57;1.47;;;4.00;99.90;;;;;;4989894;28;20986;-92
2023/01/16 16:26:39;;;;;;;1.87;1.70;;;4.10;99.90;;;;;;5002188;28;20956;-93
2023/01/16 16:29:06;;;;;;;4.00;1.80;;;3.90;99.90;;;;;;4999458;28;20460;-94
2023/01/16 16:31:36;;;;;;;11.07;2.07;;;4.10;99.90;;;;;;4999807;28;20484;-94
2023/01/16 16:34:06;;;;;;;2.40;2.00;;;4.00;99.90;;;;;;4991059;28;20979;-83
2023/01/16 16:36:37;;;;;;;1.73;1.63;;;3.90;99.90;;;;;;4981826;28;20501;-89
2023/01/16 16:39:10;;;;;;;3.43;1.77;;;3.90;99.90;;;;;;4996925;28;20494;-90
2023/01/16 16:44:42;;;;;;;1.90;1.70;;;3.80;99.90;;;;;;4988009;28;20459;-89
2023/01/16 16:47:28;;;;;;;2.90;1.93;;;4.00;99.90;;;;;;5000902;28;20456;-83
2023/01/16 16:49:55;;;;;;;3.07;1.97;;;3.90;99.90;;;;;;5007554;28;20491;-86
2023/01/16 16:52:31;;;;;;;1.67;1.40;;;3.70;99.90;;;;;;5008315;28;20456;-85
2023/01/16 16:55:00;;;;;;;3.20;2.23;;;4.00;99.90;;;;;;4987285;28;20997;-90
2023/01/16 16:57:41;;;;;;;2.70;2.00;;;4.50;99.90;;;;;;4969843;28;20894;-90
2023/01/16 17:00:17;;;;;;;2.10;1.90;;;4.00;99.90;;;;;;4971287;28;20469;-89
2023/01/16 17:02:47;;;;;;;4.30;2.60;;;3.90;99.90;;;;;;4970284;28;20752;-83
2023/01/16 17:05:18;;;;;;;3.23;2.20;;;3.80;99.90;;;;;;4969844;28;20556;-88
2023/01/16 17:07:45;;;;;;;2.83;2.30;;;3.80;99.90;;;;;;4970185;28;20472;-83
2023/01/16 17:10:14;;;;;;;3.20;2.30;;;3.80;99.90;;;;;;4971255;28;20465;-90
2023/01/16 17:12:41;;;;;;;7.10;4.07;;;3.70;99.90;;;;;;4978467;28;21000;-84
2023/01/16 17:15:09;;;;;;;2.80;1.90;;;3.70;99.90;;;;;;4988668;28;20826;-83
2023/01/16 17:17:36;;;;;;;1.90;1.77;;;3.70;99.90;;;;;;4988603;28;20489;-82
2023/01/16 17:20:05;;;;;;;4.13;2.37;;;3.90;99.90;;;;;;4986994;28;20868;-83
2023/01/16 17:22:32;;;;;;;10.03;2.10;;;3.80;99.90;;;;;;4987149;28;20433;-84
2023/01/16 17:24:59;;;;;;;4.60;2.23;;;3.70;99.90;;;;;;4988718;28;20574;-86
2023/01/16 17:27:26;;;;;;;3.10;2.77;;;3.70;99.90;;;;;;4987982;28;20476;-87
2023/01/16 17:29:54;;;;;;;3.97;2.80;;;3.90;99.90;;;;;;4993593;28;20892;-90
2023/01/16 17:32:29;;;;;;;5.60;3.23;;;3.70;99.90;;;;;;4998603;28;20541;-85
2023/01/16 17:34:56;;;;;;;2.47;2.20;;;;;;;;;;4999426;28;20460;-82
2023/01/16 17:37:25;;;;;;;7.27;3.00;;;3.70;99.90;;;;;;4998972;28;20489;-82
2023/01/16 17:39:52;;;;;;;7.63;3.23;;;3.40;99.90;;;;;;4997021;28;20461;-88
2023/01/16 17:48:05;;;;;;;3.70;2.33;;;3.30;99.90;;;;;;4990712;28;20471;-86
2023/01/16 17:50:32;;;;;;;5.30;3.97;;;3.50;99.90;;;;;;4991594;28;20515;-89
2023/01/16 17:53:00;;;;;;;2.83;2.33;;;3.10;99.90;;;;;;4996603;28;20445;-81
2023/01/16 17:58:11;;;;;;;6.40;2.83;;;3.50;99.90;;;;;;4996004;28;20596;-86
2023/01/16 18:00:39;;;;;;;2.03;1.80;;;3.40;99.90;;;;;;4997440;28;20477;-88
2023/01/16 18:03:07;;;;;;;3.63;2.70;;;3.20;99.90;;;;;;4990377;28;20460;-82
2023/01/16 18:05:34;;;;;;;4.17;2.43;;;3.10;99.90;;;;;;4988219;28;20747;-84
2023/01/16 18:08:02;;;;;;;4.37;2.83;;;3.10;99.90;;;;;;4988173;28;20465;-83
2023/01/16 18:10:29;;;;;;;5.63;2.60;;;3.70;99.90;;;;;;4986542;28;20464;-84
2023/01/16 18:18:28;;;;;;;7.50;4.90;;;3.10;99.90;;;;;;4985387;28;20507;-84
2023/01/16 18:23:37;;;;;;;6.73;4.07;;;3.50;99.90;;;;;;5005990;28;20444;-93
2023/01/16 18:26:04;;;;;;;7.47;3.40;;;3.40;99.90;;;;;;5005732;28;20449;-90
2023/01/16 18:28:31;;;;;;;7.33;3.40;;;3.40;99.90;;;;;;4990723;28;20457;-95
2023/01/16 18:31:04;;;;;;;6.47;5.03;;;3.30;99.90;;;;;;4993108;28;20964;-94
2023/01/16 18:33:32;;;;;;;6.57;4.77;;;3.40;99.90;;;;;;4995058;28;20465;-77
2023/01/16 18:36:02;;;;;;;8.13;4.00;;;3.40;99.90;;;;;;4984570;28;20476;-77
2023/01/16 19:03:19;;;;;;;2.30;2.10;;;3.80;99.90;;;;;;4988789;28;20447;-79
2023/01/16 19:05:46;;;;;;;2.10;1.73;;;3.80;99.90;;;;;;4989132;28;20496;-82
2023/01/16 19:08:21;;;;;;;4.33;2.30;;;3.80;99.90;;;;;;4988228;28;20469;-78
2023/01/16 19:10:49;;;;;;;6.37;2.50;;;3.80;99.90;;;;;;4989435;28;20464;-78
2023/01/16 19:13:17;;;;;;;6.83;2.40;;;3.80;99.90;;;;;;4989764;28;20457;-78
2023/01/16 19:18:25;;;;;;;8.73;2.07;;;3.80;99.90;;;;;;4979475;28;20485;-83
2023/01/16 19:20:51;;;;;;;5.57;2.10;;;3.80;99.90;;;;;;4971108;28;20441;-83
2023/01/16 19:23:18;;;;;;;2.50;1.70;;;3.60;99.90;;;;;;4982428;28;20526;-80
2023/01/16 19:25:45;;;;;;;2.43;1.80;;;4.00;99.90;;;;;;4991230;28;20452;-83
2023/01/16 19:28:12;;;;;;;1.43;1.33;;;4.10;99.90;;;;;;4995866;28;20499;-81
2023/01/16 19:30:40;;;;;;;1.30;1.20;;;4.40;99.90;;;;;;4996282;28;20859;-80
2023/01/16 19:33:08;;;;;;;2.60;1.30;;;4.70;99.90;;;;;;4998455;28;20451;-81
2023/01/16 19:35:35;;;;;;;2.83;1.20;;;4.80;99.90;;;;;;4997773;28;20457;-81
2023/01/16 19:38:02;;;;;;;9.13;1.20;;;5.20;99.90;;;;;;4998451;28;20501;-80
2023/01/16 19:40:30;;;;;;;3.83;1.10;;;6.40;99.90;;;;;;4999006;28;20437;-83